Time;durP1;ratioP1;P1;durP2;ratioP2;P2;SDS_P1;SDS_P2;PMS_P1;PMS_P2;Temp;Humidity;BMP_temperature;BMP_pressure;BME280_temperature;BME280_humidity;BME280_pressure;Samples;Min_cycle;Max_cycle;Signal;HPM_P1;HPM_P2
2023/12/22 00:01:48;;;;;;;1.90;0.10;;;;;;;0.92;84.95;96355.13;5043786;28;20076;-78
2023/12/22 00:04:15;;;;;;;0.38;0.03;;;;;;;0.93;84.54;96361.94;5047448;28;20140;-79
2023/12/22 00:06:42;;;;;;;0.20;0.10;;;;;;;0.93;84.51;96358.53;5045160;28;20072;-77
2023/12/22 00:09:11;;;;;;;0.13;0.00;;;;;;;0.91;84.50;96353.50;5049070;28;20139;-77
2023/12/22 00:11:37;;;;;;;0.98;0.00;;;;;;;0.89;84.69;96352.75;5045604;28;20165;-78
2023/12/22 00:14:04;;;;;;;1.10;0.10;;;;;;;0.88;84.65;96363.94;5047982;28;20816;-79
2023/12/22 00:16:31;;;;;;;3.67;0.10;;;;;;;0.86;84.64;96355.47;5047896;28;20187;-77
2023/12/22 00:18:58;;;;;;;2.63;0.13;;;;;;;0.83;84.11;96350.50;5047456;28;20069;-77
2023/12/22 00:21:27;;;;;;;3.17;0.10;;;;;;;0.80;84.28;96336.06;5049905;28;20079;-83
2023/12/22 00:23:54;;;;;;;5.78;0.40;;;;;;;0.80;84.60;96350.66;5048588;28;20136;-84
2023/12/22 00:26:23;;;;;;;1.00;0.10;;;;;;;0.75;84.20;96343.19;5048868;28;20136;-85
2023/12/22 00:28:50;;;;;;;2.10;0.03;;;;;;;0.79;84.36;96352.41;5050557;28;20128;-84
2023/12/22 00:31:18;;;;;;;1.95;0.10;;;;;;;0.78;84.35;96347.34;5050158;28;20156;-79
2023/12/22 00:33:45;;;;;;;0.93;0.10;;;;;;;0.75;84.31;96348.34;5049103;28;20042;-79
2023/12/22 00:36:12;;;;;;;0.85;0.10;;;;;;;0.76;84.72;96344.84;5048742;28;20069;-80
2023/12/22 00:38:39;;;;;;;1.48;0.05;;;;;;;0.76;84.24;96347.41;5048547;28;20069;-78
2023/12/22 00:41:05;;;;;;;1.95;0.10;;;;;;;0.75;84.86;96357.81;5049476;28;20080;-78
2023/12/22 00:43:34;;;;;;;2.88;0.85;;;;;;;0.75;84.32;96356.06;5050091;28;21390;-78
2023/12/22 00:46:01;;;;;;;0.20;0.10;;;;;;;0.73;84.63;96355.28;5049905;28;20132;-79
2023/12/22 00:48:28;;;;;;;0.00;0.00;;;;;;;0.74;84.25;96356.16;5051874;28;20075;-79
2023/12/22 00:50:55;;;;;;;0.15;0.15;;;;;;;0.73;84.46;96355.28;5044321;28;20044;-79
2023/12/22 00:53:22;;;;;;;0.10;0.00;;;;;;;0.73;84.67;96363.00;5045285;28;21485;-78
2023/12/22 00:55:49;;;;;;;0.77;0.10;;;;;;;0.73;84.58;96359.63;5052185;28;20124;-78
2023/12/22 00:58:16;;;;;;;3.78;0.20;;;;;;;0.71;84.50;96361.47;5053886;28;20044;-78
2023/12/22 01:00:44;;;;;;;0.65;0.10;;;;;;;0.71;85.08;96358.91;5051120;28;20144;-79
2023/12/22 01:03:11;;;;;;;1.02;0.20;;;;;;;0.71;85.07;96356.31;5051519;28;20515;-79
2023/12/22 01:05:38;;;;;;;0.52;0.10;;;;;;;0.64;84.34;96340.38;5055704;28;20056;-79
2023/12/22 01:08:06;;;;;;;0.10;0.10;;;;;;;0.72;84.80;96365.69;5055428;28;20503;-78
2023/12/22 01:10:33;;;;;;;1.33;0.10;;;;;;;0.72;84.94;96360.53;5048119;28;20049;-79
2023/12/22 01:12:59;;;;;;;1.30;0.20;;;;;;;0.71;84.88;96359.72;5048937;28;20067;-78
2023/12/22 01:15:26;;;;;;;0.63;0.10;;;;;;;0.72;85.18;96358.78;5051079;28;20045;-79
2023/12/22 01:17:55;;;;;;;2.35;0.40;;;;;;;0.74;85.01;96362.13;5047779;28;20073;-79
2023/12/22 01:20:22;;;;;;;0.85;0.15;;;;;;;0.75;85.32;96352.66;5051755;28;20135;-79
2023/12/22 01:22:49;;;;;;;1.50;0.10;;;;;;;0.75;85.50;96350.09;5056542;28;20048;-78
2023/12/22 01:25:15;;;;;;;0.50;0.50;;;;;;;0.76;85.06;96364.59;5050119;28;20102;-79
2023/12/22 01:27:42;;;;;;;2.45;0.30;;;;;;;0.75;84.94;96353.47;5053287;28;20486;-79
2023/12/22 01:30:10;;;;;;;2.20;0.10;;;;;;;0.77;85.41;96350.84;5050627;28;20049;-80
2023/12/22 01:32:37;;;;;;;2.30;0.30;;;;;;;0.78;85.46;96357.63;5048867;28;20167;-79
2023/12/22 01:35:09;;;;;;;1.40;0.13;;;;;;;0.75;84.90;96350.09;5056742;28;20661;-80
2023/12/22 01:37:37;;;;;;;2.50;0.20;;;;;;;0.79;85.00;96354.13;5052107;28;20144;-80
2023/12/22 01:40:05;;;;;;;1.00;0.10;;;;;;;0.79;85.09;96343.84;5051973;28;20627;-78
2023/12/22 01:42:32;;;;;;;2.78;0.50;;;;;;;0.79;85.19;96344.69;5051009;28;20536;-77
2023/12/22 01:44:59;;;;;;;0.88;0.10;;;;;;;0.82;85.32;96353.16;5051740;28;20559;-78
2023/12/22 01:47:26;;;;;;;0.70;0.10;;;;;;;0.80;84.77;96341.19;5052270;28;20123;-77
2023/12/22 01:49:54;;;;;;;0.65;0.32;;;;;;;0.69;85.13;96327.28;5045560;28;20049;-77
2023/12/22 01:52:23;;;;;;;1.00;0.03;;;;;;;0.81;85.04;96349.75;5048973;28;20144;-77
2023/12/22 01:54:51;;;;;;;2.13;0.20;;;;;;;0.80;84.87;96330.91;5051561;28;20533;-79
2023/12/22 01:57:19;;;;;;;0.88;0.10;;;;;;;0.83;85.17;96329.09;5047632;28;20558;-77
2023/12/22 01:59:49;;;;;;;1.83;0.10;;;;;;;0.82;85.04;96330.00;5045530;28;20068;-77
2023/12/22 02:02:17;;;;;;;1.33;0.20;;;;;;;0.84;85.43;96339.28;5044615;28;20469;-77
2023/12/22 02:04:46;;;;;;;1.48;0.20;;;;;;;0.84;85.44;96341.84;5045580;28;20041;-79
2023/12/22 02:07:13;;;;;;;0.30;0.08;;;;;;;0.85;85.07;96351.25;5044238;28;20041;-79
2023/12/22 02:09:42;;;;;;;1.90;0.10;;;;;;;0.84;85.15;96347.00;5053667;28;20453;-78
2023/12/22 02:12:09;;;;;;;1.48;0.10;;;;;;;0.85;85.73;96350.41;5046348;28;20139;-78
2023/12/22 02:14:36;;;;;;;0.82;0.10;;;;;;;0.86;85.25;96332.31;5048437;28;21603;-77
2023/12/22 02:17:12;;;;;;;1.85;0.25;;;;;;;0.88;85.44;96337.38;5045518;28;20159;-78
2023/12/22 02:19:44;;;;;;;1.83;0.20;;;;;;;0.87;85.01;96328.81;5051948;28;20169;-77
2023/12/22 02:22:12;;;;;;;2.13;0.10;;;;;;;0.89;85.49;96355.31;5040358;28;20136;-79
2023/12/22 02:24:42;;;;;;;0.10;0.10;;;;;;;0.89;85.35;96333.91;5042821;28;20132;-77
2023/12/22 02:27:16;;;;;;;0.75;0.10;;;;;;;0.89;85.07;96337.28;5045772;28;20529;-77
2023/12/22 02:29:48;;;;;;;1.60;0.17;;;;;;;0.89;85.04;96334.72;5042550;28;20045;-78
2023/12/22 02:32:24;;;;;;;0.17;0.10;;;;;;;0.91;84.95;96348.34;5044456;28;20306;-79
2023/12/22 02:34:53;;;;;;;0.75;0.13;;;;;;;0.84;85.23;96326.41;5046053;28;20048;-79
2023/12/22 02:37:22;;;;;;;3.55;0.10;;;;;;;0.90;85.04;96325.25;5042237;28;20140;-78
2023/12/22 02:39:52;;;;;;;0.68;0.10;;;;;;;0.91;85.68;96337.22;5046793;28;20053;-83
2023/12/22 02:42:23;;;;;;;1.95;0.10;;;;;;;0.91;85.69;96332.91;5045591;28;20136;-85
2023/12/22 02:44:51;;;;;;;2.63;0.10;;;;;;;0.91;85.70;96338.06;5043018;28;20558;-84
2023/12/22 02:47:18;;;;;;;0.32;0.10;;;;;;;0.92;85.09;96337.13;5042931;28;20132;-85
2023/12/22 02:49:45;;;;;;;2.53;0.10;;;;;;;0.93;84.97;96336.19;5047393;28;20482;-78
2023/12/22 02:52:12;;;;;;;0.30;0.10;;;;;;;0.92;85.15;96339.69;5039005;28;20081;-78
2023/12/22 02:54:40;;;;;;;2.20;0.10;;;;;;;0.91;85.15;96352.66;5038504;28;20127;-79
2023/12/22 02:57:08;;;;;;;0.20;0.00;;;;;;;0.93;84.81;96343.91;5038107;28;20479;-77
2023/12/22 02:59:35;;;;;;;2.63;0.10;;;;;;;0.93;85.13;96367.09;5042873;28;20131;-77
2023/12/22 03:02:02;;;;;;;0.63;0.10;;;;;;;0.93;85.22;96356.78;5039805;28;20486;-78
2023/12/22 03:04:29;;;;;;;1.70;0.10;;;;;;;0.93;85.62;96364.50;5039856;28;20136;-78
2023/12/22 03:06:56;;;;;;;1.02;0.10;;;;;;;0.93;84.78;96363.69;5043758;28;20124;-78
2023/12/22 03:09:23;;;;;;;1.77;0.00;;;;;;;0.91;85.26;96358.63;5037220;28;20136;-77
2023/12/22 03:11:51;;;;;;;0.63;0.10;;;;;;;0.92;85.70;96367.19;5042231;28;20127;-78
2023/12/22 03:14:20;;;;;;;1.85;1.65;;;;;;;0.91;85.19;96361.22;5044134;28;20044;-78
2023/12/22 03:16:46;;;;;;;0.13;0.03;;;;;;;0.92;85.41;96369.75;5039803;28;20164;-78
2023/12/22 03:19:13;;;;;;;1.42;0.10;;;;;;;0.91;85.20;96368.94;5045177;28;20506;-78
2023/12/22 03:21:40;;;;;;;1.35;0.10;;;;;;;0.90;85.13;96376.72;5038197;28;20080;-78
2023/12/22 03:24:07;;;;;;;2.08;0.20;;;;;;;0.88;85.09;96369.09;5041743;28;20120;-77
2023/12/22 03:26:34;;;;;;;2.85;0.05;;;;;;;0.88;84.96;96361.38;5039361;28;20148;-77
2023/12/22 03:29:01;;;;;;;1.95;0.10;;;;;;;0.88;85.05;96379.38;5046133;28;20080;-78
2023/12/22 03:31:29;;;;;;;2.65;0.10;;;;;;;0.87;84.69;96377.72;5050796;28;20099;-79
2023/12/22 03:33:56;;;;;;;0.20;0.00;;;;;;;0.86;84.91;96381.22;5041854;28;20084;-78
2023/12/22 03:36:23;;;;;;;1.10;0.00;;;;;;;0.84;84.53;96390.75;5051070;28;20084;-78
2023/12/22 03:38:50;;;;;;;1.00;0.10;;;;;;;0.80;84.46;96382.38;5045290;28;20460;-78
2023/12/22 03:41:17;;;;;;;0.73;0.00;;;;;;;0.79;85.07;96388.44;5045301;28;20076;-78
2023/12/22 03:43:44;;;;;;;0.17;0.00;;;;;;;0.79;84.72;96390.16;5052949;28;20577;-79
2023/12/22 03:46:11;;;;;;;1.00;0.10;;;;;;;0.77;84.32;96397.97;5045006;28;20128;-77
2023/12/22 03:48:39;;;;;;;0.10;0.08;;;;;;;0.71;84.67;96406.03;5046196;28;20138;-77
2023/12/22 03:51:06;;;;;;;0.10;0.00;;;;;;;0.74;84.50;96407.59;5049557;28;20139;-77
2023/12/22 03:53:33;;;;;;;0.65;0.00;;;;;;;0.73;84.21;96401.59;5045892;28;20498;-77
2023/12/22 03:56:00;;;;;;;0.00;0.00;;;;;;;0.72;84.56;96410.25;5047382;28;20463;-77
2023/12/22 03:58:29;;;;;;;0.00;0.00;;;;;;;0.72;84.32;96409.41;5046428;28;20076;-78
2023/12/22 04:00:56;;;;;;;0.10;0.00;;;;;;;0.71;84.79;96424.03;5049001;28;20048;-77
2023/12/22 04:03:23;;;;;;;0.32;0.00;;;;;;;0.71;84.70;96412.91;5044291;28;20095;-77
2023/12/22 04:05:51;;;;;;;0.55;0.00;;;;;;;0.71;84.90;96429.16;5042329;28;20073;-78
2023/12/22 04:08:19;;;;;;;1.85;0.10;;;;;;;0.71;84.35;96418.06;5049466;28;20136;-77
2023/12/22 04:10:46;;;;;;;1.38;0.00;;;;;;;0.71;84.74;96418.88;5048688;28;20086;-77
2023/12/22 04:13:13;;;;;;;0.98;0.00;;;;;;;0.71;85.06;96424.03;5043715;28;20578;-78
2023/12/22 04:15:41;;;;;;;0.55;0.00;;;;;;;0.71;84.83;96434.31;5042116;28;20127;-77
2023/12/22 04:18:08;;;;;;;0.00;0.00;;;;;;;0.70;84.54;96431.81;5044170;28;20562;-77
2023/12/22 04:20:34;;;;;;;0.10;0.00;;;;;;;0.71;84.82;96438.63;5041954;28;20140;-77
2023/12/22 04:23:03;;;;;;;0.32;0.00;;;;;;;0.71;84.98;96423.19;5045062;28;20135;-77
2023/12/22 04:25:30;;;;;;;1.55;0.10;;;;;;;0.67;84.84;96429.41;5044119;28;20052;-77
2023/12/22 04:27:57;;;;;;;0.00;0.00;;;;;;;0.66;84.72;96448.31;5046846;28;20073;-77
2023/12/22 04:30:26;;;;;;;0.00;0.00;;;;;;;0.70;84.90;96440.34;5046895;28;20087;-77
2023/12/22 04:32:53;;;;;;;0.20;0.00;;;;;;;0.70;85.01;96447.25;5052415;28;20130;-77
2023/12/22 04:35:19;;;;;;;0.00;0.00;;;;;;;0.70;85.05;96460.09;5050338;28;20526;-78
2023/12/22 04:37:46;;;;;;;0.00;0.00;;;;;;;0.70;84.48;96460.09;5047230;28;20120;-78
2023/12/22 04:40:15;;;;;;;0.32;0.10;;;;;;;0.71;84.70;96466.94;5051005;28;20540;-79
2023/12/22 04:42:43;;;;;;;0.10;0.00;;;;;;;0.71;84.68;96459.22;5051010;28;20073;-78
2023/12/22 04:45:10;;;;;;;0.55;0.00;;;;;;;0.70;84.95;96465.25;5048849;28;20994;-77
2023/12/22 04:47:37;;;;;;;0.10;0.00;;;;;;;0.71;85.28;96469.50;5050235;28;20122;-77
2023/12/22 04:50:04;;;;;;;0.38;0.00;;;;;;;0.71;85.17;96479.78;5048259;28;20131;-77
2023/12/22 04:52:31;;;;;;;0.05;0.00;;;;;;;0.72;85.16;96484.00;5049003;28;20138;-77
2023/12/22 04:54:58;;;;;;;1.23;0.40;;;;;;;0.73;85.12;96485.66;5037848;28;20502;-80
2023/12/22 04:57:26;;;;;;;0.40;0.00;;;;;;;0.73;84.97;96483.91;5047105;28;20071;-76
2023/12/22 04:59:53;;;;;;;0.93;0.10;;;;;;;0.74;85.21;96485.59;5043860;28;20075;-76
2023/12/22 05:02:20;;;;;;;0.00;0.00;;;;;;;0.75;85.44;96483.84;5042770;28;20090;-76
2023/12/22 05:04:47;;;;;;;0.10;0.00;;;;;;;0.76;84.69;96488.06;5041970;28;20069;-76
2023/12/22 05:07:14;;;;;;;0.10;0.00;;;;;;;0.77;85.30;96498.31;5044789;28;20084;-76
2023/12/22 05:09:42;;;;;;;0.15;0.00;;;;;;;0.77;84.99;96500.88;5046384;28;20048;-75
2023/12/22 05:12:09;;;;;;;0.55;0.00;;;;;;;0.79;84.89;96508.50;5043837;28;20122;-74
2023/12/22 05:14:38;;;;;;;0.25;0.00;;;;;;;0.79;84.73;96501.63;5040198;28;20132;-75
2023/12/22 05:17:05;;;;;;;0.10;0.00;;;;;;;0.80;84.93;96505.03;5040078;28;20127;-74
2023/12/22 05:19:32;;;;;;;0.60;0.10;;;;;;;0.80;85.09;96499.88;5040764;28;20140;-74
2023/12/22 05:21:59;;;;;;;0.77;0.00;;;;;;;0.81;85.13;96511.84;5038413;28;20076;-75
2023/12/22 05:24:27;;;;;;;1.48;0.00;;;;;;;0.80;84.51;96516.16;5042449;28;20058;-74
2023/12/22 05:26:54;;;;;;;1.10;0.05;;;;;;;0.82;84.49;96517.81;5039182;28;20045;-74
2023/12/22 05:29:21;;;;;;;0.22;0.10;;;;;;;0.83;84.89;96528.03;5045441;28;20095;-74
2023/12/22 05:31:50;;;;;;;1.40;0.08;;;;;;;0.84;84.47;96537.41;5041515;28;20852;-74
2023/12/22 05:34:16;;;;;;;0.20;0.00;;;;;;;0.82;84.15;96540.97;5042290;28;20088;-74
2023/12/22 05:36:43;;;;;;;0.17;0.00;;;;;;;0.75;84.48;96525.84;5043345;28;20569;-74
2023/12/22 05:39:10;;;;;;;0.00;0.00;;;;;;;0.85;84.61;96533.94;5041364;28;20041;-74
2023/12/22 05:41:37;;;;;;;0.13;0.00;;;;;;;0.83;84.32;96537.50;5042197;28;20464;-74
2023/12/22 05:44:05;;;;;;;0.00;0.00;;;;;;;0.79;84.05;96539.38;5033784;28;20045;-74
2023/12/22 05:46:32;;;;;;;0.00;0.00;;;;;;;0.79;84.01;96553.09;5042030;28;20056;-75
2023/12/22 05:49:00;;;;;;;1.05;0.20;;;;;;;0.78;83.84;96559.13;5039261;28;20235;-74
2023/12/22 05:51:27;;;;;;;0.00;0.00;;;;;;;0.77;83.59;96562.63;5035176;28;20140;-74
2023/12/22 05:53:54;;;;;;;0.00;0.00;;;;;;;0.62;84.01;96542.78;5033364;28;20138;-74
2023/12/22 05:56:22;;;;;;;0.08;0.00;;;;;;;0.73;83.62;96568.81;5037823;28;20057;-73
2023/12/22 05:58:50;;;;;;;0.10;0.05;;;;;;;0.54;83.75;96548.34;5033810;28;20144;-73
2023/12/22 06:01:18;;;;;;;1.23;0.00;;;;;;;0.71;83.39;96577.53;5034576;28;20047;-73
2023/12/22 06:03:45;;;;;;;0.00;0.00;;;;;;;0.71;83.39;96587.84;5035413;28;20491;-73
2023/12/22 06:06:14;;;;;;;2.05;0.00;;;;;;;0.69;83.80;96585.31;5035840;28;20140;-75
2023/12/22 06:08:41;;;;;;;0.00;0.00;;;;;;;0.67;83.58;96597.41;5036693;28;20123;-71
2023/12/22 06:11:08;;;;;;;0.95;0.00;;;;;;;0.66;83.59;96584.66;5043345;28;20647;-76
2023/12/22 06:13:35;;;;;;;0.47;0.00;;;;;;;0.65;83.62;96595.81;5046148;28;20163;-75
2023/12/22 06:16:01;;;;;;;0.10;0.00;;;;;;;0.63;83.33;96611.34;5041333;28;20052;-75
2023/12/22 06:18:28;;;;;;;0.00;0.00;;;;;;;0.63;83.54;96602.81;5047721;28;20136;-75
2023/12/22 06:20:55;;;;;;;0.00;0.00;;;;;;;0.62;83.49;96619.13;5045654;28;20077;-79
2023/12/22 06:23:23;;;;;;;0.00;0.00;;;;;;;0.61;83.35;96617.47;5050327;28;20056;-78
2023/12/22 06:25:50;;;;;;;0.00;0.00;;;;;;;0.60;83.34;96619.22;5052196;28;20073;-81
2023/12/22 06:28:17;;;;;;;0.75;0.00;;;;;;;0.60;83.24;96626.94;5051414;28;20072;-80
2023/12/22 06:30:46;;;;;;;0.00;0.00;;;;;;;0.59;83.46;96630.41;5049704;28;20080;-82
2023/12/22 06:33:14;;;;;;;0.00;0.00;;;;;;;0.58;83.26;96636.47;5051781;28;20049;-81
2023/12/22 06:35:41;;;;;;;0.00;0.00;;;;;;;0.58;83.36;96637.28;5051375;28;20080;-80
2023/12/22 06:38:11;;;;;;;0.13;0.00;;;;;;;0.56;83.63;96639.09;5055245;28;20049;-80
2023/12/22 06:40:39;;;;;;;0.38;0.00;;;;;;;0.55;83.42;96655.44;5050696;28;20065;-80
2023/12/22 06:43:06;;;;;;;1.15;0.00;;;;;;;0.54;83.75;96653.78;5056756;28;20131;-81
2023/12/22 06:45:33;;;;;;;0.55;0.00;;;;;;;0.54;83.53;96653.78;5055196;28;20815;-81
2023/12/22 06:48:01;;;;;;;1.27;0.25;;;;;;;0.54;83.30;96661.50;5053240;28;20076;-79
2023/12/22 06:50:28;;;;;;;3.53;0.05;;;;;;;0.50;83.17;96654.81;5054305;28;20076;-81
2023/12/22 06:52:55;;;;;;;0.10;0.00;;;;;;;0.53;83.96;96664.97;5049965;28;20136;-81
2023/12/22 06:55:22;;;;;;;0.00;0.00;;;;;;;0.48;83.18;96674.66;5051448;28;20080;-79
2023/12/22 06:57:51;;;;;;;0.03;0.00;;;;;;;0.53;83.43;96677.81;5042989;28;20131;-83
2023/12/22 07:00:18;;;;;;;0.03;0.00;;;;;;;0.53;83.65;96677.81;5041541;28;20050;-83
2023/12/22 07:02:45;;;;;;;0.20;0.00;;;;;;;0.53;83.28;96682.13;5047250;28;20079;-83
2023/12/22 07:05:32;;;;;;;0.00;0.00;;;;;;;0.52;83.80;96691.59;5049122;28;20113;-84
2023/12/22 07:07:59;;;;;;;0.10;0.08;;;;;;;0.50;83.46;96703.69;5052401;28;20069;-80
2023/12/22 07:10:27;;;;;;;0.10;0.00;;;;;;;0.40;83.59;96694.75;5052705;28;20049;-80
2023/12/22 07:12:55;;;;;;;0.17;0.10;;;;;;;0.49;83.48;96708.91;5054118;28;20140;-79
2023/12/22 07:15:22;;;;;;;0.40;0.40;;;;;;;0.49;83.23;96712.31;5047779;28;20105;-76
2023/12/22 07:17:49;;;;;;;0.10;0.00;;;;;;;0.50;83.49;96723.44;5021028;28;20060;-85
2023/12/22 07:20:16;;;;;;;2.05;0.00;;;;;;;0.49;83.38;96727.75;5045844;28;20144;-77
2023/12/22 07:22:46;;;;;;;0.77;0.30;;;;;;;0.51;83.64;96748.25;5042777;28;20124;-75
2023/12/22 07:25:13;;;;;;;0.10;0.00;;;;;;;0.49;83.61;96735.47;5053847;28;20060;-82
2023/12/22 07:27:40;;;;;;;0.40;0.00;;;;;;;0.48;83.46;96731.25;5052357;28;20083;-84
2023/12/22 07:30:11;;;;;;;0.20;0.00;;;;;;;0.48;83.70;96736.38;5048692;28;20542;-76
2023/12/22 07:32:38;;;;;;;1.38;0.10;;;;;;;0.47;83.78;96754.44;5049227;28;20079;-76
2023/12/22 07:35:07;;;;;;;0.52;0.10;;;;;;;0.45;83.74;96749.38;5053393;28;20231;-78
2023/12/22 07:37:36;;;;;;;0.20;0.10;;;;;;;0.46;83.63;96748.47;5052450;28;20625;-89
2023/12/22 07:40:03;;;;;;;0.20;0.10;;;;;;;0.46;83.47;96747.63;5032737;28;20160;-83
2023/12/22 07:42:30;;;;;;;0.45;0.10;;;;;;;0.47;83.53;96750.13;5054664;28;20467;-82
2023/12/22 07:44:57;;;;;;;0.82;0.10;;;;;;;0.47;83.80;96755.25;5053770;28;20149;-81
2023/12/22 07:47:26;;;;;;;0.25;0.10;;;;;;;0.47;83.35;96770.69;5045767;28;20064;-76
2023/12/22 07:49:53;;;;;;;0.40;0.10;;;;;;;0.47;83.38;96773.28;5051692;28;20049;-75
2023/12/22 07:52:20;;;;;;;0.70;0.00;;;;;;;0.48;83.63;96781.81;5043790;28;20136;-74
2023/12/22 07:54:47;;;;;;;0.17;0.10;;;;;;;0.48;83.78;96774.94;5038840;28;20048;-75
2023/12/22 07:57:14;;;;;;;0.35;0.05;;;;;;;0.47;83.73;96770.69;5040588;28;20049;-75
2023/12/22 07:59:41;;;;;;;0.20;0.10;;;;;;;0.48;83.31;96784.38;5043498;28;20065;-83
2023/12/22 08:02:08;;;;;;;0.00;0.00;;;;;;;0.47;83.56;96791.28;5046759;28;20076;-81
2023/12/22 08:04:36;;;;;;;0.55;0.10;;;;;;;0.47;83.29;96785.31;5045008;28;20128;-83
2023/12/22 08:07:04;;;;;;;0.13;0.10;;;;;;;0.47;83.54;96790.44;5056391;28;20918;-82
2023/12/22 08:09:30;;;;;;;0.38;0.30;;;;;;;0.47;83.81;96791.28;5054654;28;20136;-79
2023/12/22 08:11:57;;;;;;;0.20;0.10;;;;;;;0.47;83.17;96801.56;5053079;28;20545;-81
2023/12/22 08:14:24;;;;;;;1.55;0.22;;;;;;;0.47;83.51;96806.69;5056576;28;20144;-78
2023/12/22 08:16:52;;;;;;;0.38;0.10;;;;;;;0.24;83.53;96763.22;5050352;28;20069;-75
2023/12/22 08:19:20;;;;;;;0.22;0.15;;;;;;;0.46;83.34;96810.19;5050825;28;20045;-76
2023/12/22 08:21:48;;;;;;;0.20;0.10;;;;;;;0.46;83.79;96812.75;5049724;28;20051;-75
2023/12/22 08:24:17;;;;;;;0.10;0.00;;;;;;;0.44;82.99;96822.28;5049673;28;20541;-76
2023/12/22 08:26:44;;;;;;;0.30;0.20;;;;;;;0.44;83.55;96818.88;5048137;28;20713;-77
2023/12/22 08:29:11;;;;;;;1.77;0.35;;;;;;;0.44;83.02;96824.00;5051144;28;20079;-76
2023/12/22 08:31:38;;;;;;;0.50;0.13;;;;;;;0.43;83.63;96815.47;5046599;28;20583;-74
2023/12/22 08:34:06;;;;;;;2.83;0.20;;;;;;;0.43;83.70;96833.47;5046873;28;20136;-74
2023/12/22 08:36:32;;;;;;;1.85;0.20;;;;;;;0.42;83.18;96836.94;5043029;28;20059;-74
2023/12/22 08:39:01;;;;;;;0.30;0.20;;;;;;;0.41;83.18;96832.69;5042607;28;20215;-74
2023/12/22 08:41:28;;;;;;;1.42;1.33;;;;;;;0.40;83.12;96827.63;5049784;28;20127;-77
2023/12/22 08:43:55;;;;;;;0.22;0.10;;;;;;;0.40;83.24;96832.78;5047412;28;20166;-73
2023/12/22 08:46:24;;;;;;;0.20;0.10;;;;;;;0.37;83.13;96826.03;5041642;28;20073;-73
2023/12/22 08:48:51;;;;;;;1.42;0.55;;;;;;;0.38;83.42;96832.84;5039549;28;20048;-74
2023/12/22 08:51:18;;;;;;;1.45;0.30;;;;;;;0.37;83.42;96832.88;5040172;28;20132;-74
2023/12/22 08:53:45;;;;;;;0.30;0.10;;;;;;;0.40;83.12;96843.91;5040386;28;20080;-79
2023/12/22 08:56:14;;;;;;;0.30;0.17;;;;;;;0.41;83.08;96839.59;5042022;28;20127;-75
2023/12/22 08:58:42;;;;;;;0.20;0.10;;;;;;;0.41;83.14;96858.41;5043899;28;20429;-74
2023/12/22 09:01:09;;;;;;;0.50;0.20;;;;;;;0.41;83.64;96855.00;5039792;28;20064;-73
2023/12/22 09:03:43;;;;;;;0.55;0.17;;;;;;;0.40;83.07;96849.03;5038307;28;20072;-74
2023/12/22 09:06:10;;;;;;;0.25;0.20;;;;;;;0.41;83.36;96858.41;5041015;28;20634;-73
2023/12/22 09:08:37;;;;;;;1.00;0.30;;;;;;;0.40;82.87;96856.75;5039534;28;20056;-76
2023/12/22 09:11:04;;;;;;;0.32;0.20;;;;;;;0.40;83.41;96851.59;5049564;28;20048;-75
2023/12/22 09:13:33;;;;;;;1.83;0.43;;;;;;;0.40;83.53;96861.06;5044397;28;20573;-76
2023/12/22 09:16:00;;;;;;;0.40;0.10;;;;;;;0.40;82.88;96856.75;5051021;28;20152;-75
2023/12/22 09:18:26;;;;;;;2.85;0.20;;;;;;;0.40;82.88;96859.31;5043233;28;20068;-74
2023/12/22 09:20:53;;;;;;;1.15;0.25;;;;;;;0.40;83.40;96856.75;5041652;28;20068;-73
2023/12/22 09:23:21;;;;;;;0.47;0.20;;;;;;;0.40;83.25;96861.91;5041836;28;20108;-74
2023/12/22 09:25:48;;;;;;;0.52;0.30;;;;;;;0.40;83.32;96851.59;5040354;28;20060;-74
2023/12/22 09:28:15;;;;;;;0.10;0.05;;;;;;;0.39;83.06;96852.50;5049776;28;20139;-74
2023/12/22 09:30:43;;;;;;;0.50;0.30;;;;;;;0.39;83.17;96860.22;5042211;28;20047;-75
2023/12/22 09:33:11;;;;;;;1.45;0.30;;;;;;;0.39;83.36;96855.06;5041760;28;20144;-75
2023/12/22 09:35:41;;;;;;;0.80;0.30;;;;;;;0.38;82.78;96852.56;5043118;28;20144;-74
2023/12/22 09:38:09;;;;;;;0.80;0.30;;;;;;;0.38;82.84;96855.16;5038371;28;20593;-73
2023/12/22 09:40:36;;;;;;;0.32;0.13;;;;;;;0.38;83.15;96858.56;5042854;28;20495;-77
2023/12/22 09:43:05;;;;;;;0.60;0.40;;;;;;;0.38;82.94;96860.28;5040463;28;20756;-73
2023/12/22 09:45:33;;;;;;;0.90;0.20;;;;;;;0.38;83.40;96862.88;5044555;28;20063;-75
2023/12/22 09:48:03;;;;;;;0.98;0.30;;;;;;;0.29;83.38;96853.81;5043354;28;20065;-75
2023/12/22 09:50:31;;;;;;;0.52;0.30;;;;;;;0.35;83.11;96868.97;5045889;28;20048;-75
2023/12/22 09:52:58;;;;;;;0.50;0.20;;;;;;;0.37;83.19;96867.19;5046324;28;20065;-75
2023/12/22 09:55:26;;;;;;;1.13;0.40;;;;;;;0.39;82.86;96869.66;5052421;28;20080;-78
2023/12/22 09:57:55;;;;;;;1.55;0.35;;;;;;;0.40;82.74;96871.34;5045520;28;20479;-76
2023/12/22 10:00:23;;;;;;;0.60;0.30;;;;;;;0.39;83.55;96880.78;5049778;28;20132;-77
2023/12/22 10:02:50;;;;;;;0.70;0.30;;;;;;;0.40;83.29;96887.59;5045063;28;20542;-74
2023/12/22 10:05:19;;;;;;;0.88;0.35;;;;;;;0.38;83.11;96878.28;5045765;28;20079;-76
2023/12/22 10:07:48;;;;;;;0.85;0.20;;;;;;;0.39;83.34;96873.06;5043161;28;20041;-76
2023/12/22 10:10:16;;;;;;;1.67;0.20;;;;;;;0.40;83.23;96885.03;5045045;28;20114;-75
2023/12/22 10:12:46;;;;;;;0.57;0.30;;;;;;;0.40;82.95;96882.47;5040592;28;20095;-73
2023/12/22 10:15:14;;;;;;;1.38;0.25;;;;;;;0.38;83.31;96884.25;5042066;28;20048;-74
2023/12/22 10:17:42;;;;;;;1.05;0.30;;;;;;;0.40;83.04;96890.19;5040140;28;20131;-74
2023/12/22 10:20:10;;;;;;;0.47;0.20;;;;;;;0.38;82.96;96884.25;5040456;28;20131;-74
2023/12/22 10:22:38;;;;;;;0.88;0.30;;;;;;;0.40;83.02;96887.59;5042817;28;20132;-75
2023/12/22 10:25:06;;;;;;;0.50;0.20;;;;;;;0.41;83.34;96888.44;5037990;28;20143;-74
2023/12/22 10:27:33;;;;;;;0.30;0.20;;;;;;;0.35;82.69;96887.81;5043196;28;20106;-74
2023/12/22 10:30:01;;;;;;;0.82;0.30;;;;;;;0.40;83.21;96887.59;5040664;28;20554;-74
2023/12/22 10:32:28;;;;;;;0.50;0.30;;;;;;;0.40;83.00;96900.47;5044194;28;20505;-77
2023/12/22 10:34:55;;;;;;;1.05;0.30;;;;;;;0.40;83.60;96897.91;5046414;28;20071;-76
2023/12/22 10:37:23;;;;;;;0.55;0.30;;;;;;;0.42;83.39;96890.94;5041067;28;20104;-78
2023/12/22 10:39:55;;;;;;;0.52;0.30;;;;;;;0.43;83.00;96892.63;5045623;28;20049;-78
2023/12/22 10:42:22;;;;;;;2.17;0.50;;;;;;;0.38;82.74;96884.25;5047043;28;20080;-75
2023/12/22 10:44:49;;;;;;;0.65;0.13;;;;;;;0.42;83.39;96901.22;5040828;28;20128;-75
2023/12/22 10:47:18;;;;;;;0.90;0.30;;;;;;;0.40;83.35;96903.03;5047718;28;20041;-76
2023/12/22 10:49:47;;;;;;;0.73;0.30;;;;;;;0.43;82.94;96905.47;5042164;28;20604;-74
2023/12/22 10:52:18;;;;;;;2.05;0.40;;;;;;;0.44;83.11;96903.72;5037847;28;20084;-74
2023/12/22 10:54:44;;;;;;;1.08;0.22;;;;;;;0.47;82.73;96898.44;5042311;28;20115;-74
2023/12/22 10:57:13;;;;;;;1.25;0.80;;;;;;;0.46;82.63;96907.91;5039389;28;20069;-74
2023/12/22 10:59:46;;;;;;;2.08;0.63;;;;;;;0.45;82.94;96911.38;5035128;28;20124;-74
2023/12/22 11:02:16;;;;;;;1.60;0.40;;;;;;;0.46;83.44;96901.94;5033918;28;20053;-74
2023/12/22 11:04:56;;;;;;;0.85;0.40;;;;;;;0.47;83.27;96901.84;5036932;28;20099;-75
2023/12/22 11:07:25;;;;;;;1.38;0.40;;;;;;;0.49;82.81;96904.38;5036961;28;20487;-75
2023/12/22 11:09:57;;;;;;;1.20;0.40;;;;;;;0.50;82.60;96899.13;5041254;28;20037;-75
2023/12/22 11:12:29;;;;;;;1.35;0.50;;;;;;;0.49;83.03;96897.47;5037500;28;20145;-75
2023/12/22 11:14:57;;;;;;;0.82;0.50;;;;;;;0.52;83.00;96902.50;5040371;28;20160;-74
2023/12/22 11:17:24;;;;;;;1.65;0.47;;;;;;;0.52;83.37;96897.34;5040004;28;20079;-74
2023/12/22 11:19:53;;;;;;;1.08;0.30;;;;;;;0.52;82.97;96902.50;5034353;28;20069;-74
2023/12/22 11:22:22;;;;;;;1.08;0.52;;;;;;;0.52;82.71;96902.50;5036973;28;20566;-74
2023/12/22 11:24:50;;;;;;;1.13;0.40;;;;;;;0.51;82.91;96902.56;5039510;28;20071;-75
2023/12/22 11:27:18;;;;;;;1.10;0.47;;;;;;;0.53;83.15;96891.28;5037779;28;20140;-76
2023/12/22 11:29:49;;;;;;;2.08;0.50;;;;;;;0.54;82.42;96895.53;5039289;28;20052;-74
2023/12/22 11:32:17;;;;;;;0.80;0.30;;;;;;;0.54;82.40;96899.88;5038044;28;20064;-75
2023/12/22 11:34:44;;;;;;;3.63;0.43;;;;;;;0.50;82.58;96896.56;5038840;28;20550;-74
2023/12/22 11:37:13;;;;;;;1.30;0.50;;;;;;;0.55;82.81;96906.66;5040981;28;20049;-74
2023/12/22 11:39:40;;;;;;;1.60;0.50;;;;;;;0.55;82.34;96912.63;5041423;28;20552;-74
2023/12/22 11:42:10;;;;;;;1.75;0.93;;;;;;;0.54;82.81;96910.97;5033443;28;20044;-74
2023/12/22 11:44:37;;;;;;;0.98;0.40;;;;;;;0.55;82.95;96904.91;5037688;28;20507;-74